| time (UTC) | temp F | wind direction | speed MPH | gust MPH | rain 1hr in | rain 24hr in | rain mn in | humidity % | barometer mb |
| 20260503190037 | 60 | 277 | 3.0 | 9.0 | 0.00 | 0.00 | 0.00 | 72 | 1012.4 |
| 20260503184527 | 60 | 294 | 4.0 | 9.0 | 0.00 | 0.00 | 0.00 | 71 | 1012.4 |
| 20260503183024 | 60 | 304 | 2.0 | 8.0 | 0.00 | 0.00 | 0.00 | 72 | 1012.4 |
| 20260503181522 | 59 | 26 | 1.0 | 6.0 | 0.00 | 0.00 | 0.00 | 74 | 1012.3 |
| 20260503180022 | 59 | 308 | 3.0 | 11.0 | 0.00 | 0.00 | 0.00 | 74 | 1012.3 |
| 20260503174520 | 59 | 292 | 0.0 | 3.0 | 0.00 | 0.00 | 0.00 | 74 | 1012.3 |
| 20260503173017 | 58 | 299 | 1.0 | 5.0 | 0.00 | 0.00 | 0.00 | 77 | 1012.4 |
| 20260503171515 | 58 | 141 | 1.0 | 4.0 | 0.00 | 0.00 | 0.00 | 78 | 1012.3 |
| 20260503081536 | 54 | 41 | 0.0 | 2.0 | 0.00 | 0.00 | 0.00 | 85 | 1011.2 |
| 20260503071527 | 54 | 296 | 1.0 | 4.0 | 0.00 | 0.00 | 0.00 | 85 | 1011.2 |
| 20260503054531 | 54 | 55 | 1.0 | 5.0 | 0.00 | 0.00 | 0.00 | 86 | 1011.7 |
| 20260503053035 | 54 | 301 | 1.0 | 3.0 | 0.00 | 0.00 | 0.00 | 86 | 1011.7 |
| 20260503051521 | 54 | 148 | 1.0 | 6.0 | 0.00 | 0.00 | 0.00 | 86 | 1011.7 |
| 20260503050020 | 54 | 325 | 0.0 | 6.0 | 0.00 | 0.00 | 0.00 | 85 | 1011.6 |
| 20260503044520 | 54 | 285 | 1.0 | 4.0 | 0.00 | 0.00 | 0.00 | 85 | 1011.5 |
| 20260503043025 | 54 | 250 | 1.0 | 4.0 | 0.00 | 0.00 | 0.00 | 84 | 1011.6 |
| 20260503041519 | 54 | 302 | 0.0 | 6.0 | 0.00 | 0.00 | 0.00 | 85 | 1011.4 |
| 20260503040031 | 54 | 266 | 1.0 | 3.0 | 0.00 | 0.00 | 0.00 | 84 | 1011.4 |
| 20260503034518 | 54 | 273 | 1.0 | 8.0 | 0.00 | 0.00 | 0.00 | 84 | 1011.2 |
| 20260503033018 | 54 | 322 | 2.0 | 6.0 | 0.00 | 0.00 | 0.00 | 84 | 1011.0 |
| 20260503031517 | 54 | 298 | 2.0 | 7.0 | 0.00 | 0.00 | 0.00 | 84 | 1010.8 |
| 20260503030017 | 55 | 254 | 1.0 | 6.0 | 0.00 | 0.00 | 0.00 | 84 | 1010.6 |
| 20260503024516 | 55 | 290 | 0.0 | 5.0 | 0.00 | 0.00 | 0.00 | 84 | 1010.7 |
| 20260503023016 | 55 | 300 | 2.0 | 10.0 | 0.00 | 0.00 | 0.00 | 83 | 1010.7 |
| 20260503021515 | 55 | 311 | 1.0 | 7.0 | 0.00 | 0.00 | 0.00 | 82 | 1010.7 |
| 20260503020014 | 56 | 111 | 1.0 | 4.0 | 0.00 | 0.00 | 0.00 | 81 | 1010.7 |
| 20260503014514 | 56 | 238 | 2.0 | 7.0 | 0.00 | 0.00 | 0.00 | 81 | 1010.9 |
| 20260503013015 | 56 | 346 | 2.0 | 7.0 | 0.00 | 0.00 | 0.00 | 80 | 1010.9 |
| 20260503011516 | 57 | 319 | 5.0 | 18.0 | 0.00 | 0.00 | 0.00 | 78 | 1011.0 |
| 20260503010010 | 57 | 259 | 1.0 | 8.0 | 0.00 | 0.00 | 0.00 | 79 | 1011.0 |
| 20260503004510 | 57 | 316 | 2.0 | 12.0 | 0.00 | 0.00 | 0.00 | 78 | 1011.1 |
| 20260503003009 | 58 | 299 | 3.0 | 7.0 | 0.00 | 0.00 | 0.00 | 77 | 1011.0 |
| 20260503001509 | 58 | 298 | 3.0 | 16.0 | 0.00 | 0.00 | 0.00 | 76 | 1011.0 |
| 20260503000009 | 60 | 308 | 3.0 | 11.0 | 0.00 | 0.00 | 0.00 | 73 | 1011.0 |
| 20260502234517 | 60 | 294 | 5.0 | 12.0 | 0.00 | 0.00 | 0.00 | 72 | 1011.1 |
| 20260502233007 | 62 | 267 | 2.0 | 10.0 | 0.00 | 0.00 | 0.00 | 72 | 1011.0 |
| 20260502231505 | 63 | 266 | 2.0 | 9.0 | 0.00 | 0.00 | 0.00 | 70 | 1011.1 |
| 20260502230004 | 63 | 1 | 1.0 | 12.0 | 0.00 | 0.00 | 0.00 | 70 | 1011.3 |
| 20260502224504 | 62 | 230 | 3.0 | 7.0 | 0.00 | 0.00 | 0.00 | 71 | 1011.5 |
| 20260502223003 | 62 | 257 | 1.0 | 10.0 | 0.00 | 0.00 | 0.00 | 74 | 1011.8 |
| 20260502221502 | 63 | 311 | 4.0 | 13.0 | 0.00 | 0.00 | 0.00 | 70 | 1011.9 |
| 20260502220002 | 63 | 293 | 4.0 | 11.0 | 0.00 | 0.00 | 0.00 | 71 | 1012.1 |
| 20260502214504 | 62 | 295 | 1.0 | 12.0 | 0.00 | 0.00 | 0.00 | 74 | 1012.0 |
| 20260502213002 | 62 | 328 | 3.0 | 12.0 | 0.00 | 0.00 | 0.00 | 74 | 1012.1 |
| 20260502211600 | 62 | 6 | 3.0 | 11.0 | 0.00 | 0.00 | 0.00 | 75 | 1012.2 |
| 20260502210100 | 62 | 283 | 3.0 | 10.0 | 0.00 | 0.00 | 0.00 | 76 | 1012.4 |
| 20260502210002 | 62 | 33 | 3.0 | 10.0 | 0.00 | 0.00 | 0.00 | 75 | 1012.4 |
| 20260502204618 | 62 | 205 | 2.0 | 9.0 | 0.00 | 0.00 | 0.00 | 74 | 1012.4 |
| 20260502203059 | 62 | 205 | 2.0 | 10.0 | 0.00 | 0.00 | 0.00 | 76 | 1012.6 |
| 20260502201558 | 62 | 321 | 1.0 | 13.0 | 0.00 | 0.00 | 0.00 | 78 | 1012.6 |
| 20260502200059 | 64 | 275 | 3.0 | 11.0 | 0.00 | 0.00 | 0.00 | 73 | 1012.6 |
| 20260502194556 | 62 | 273 | 4.0 | 11.0 | 0.00 | 0.00 | 0.00 | 76 | 1012.6 |
| 20260502193056 | 62 | 188 | 3.0 | 8.0 | 0.00 | 0.00 | 0.00 | 74 | 1012.6 |
| 20260502191555 | 63 | 273 | 2.0 | 6.0 | 0.00 | 0.00 | 0.00 | 74 | 1012.7 |